ADDS METAR Data INFO
IDs: Format: Raw Decoded Include TAF

Data at: 0211 UTC 17 Aug 2018

PABA 170152Z AUTO 26017KT 7SM -RA FEW013 BKN042 OVC050 07/06 A2938 RMK AO2 SLP933 P0000 T00670061 TSNO
PABA 170146Z AUTO 27016KT 10SM -RA FEW013 SCT021 OVC041 07/06 A2938 RMK AO2 P0000 TSNO
PABA 170106Z AUTO 27014KT 7SM -RA SCT013 BKN019 OVC050 06/06 A2939 RMK AO2 P0000 TSNO
PABA 170052Z AUTO 27015KT 10SM -RA FEW008 OVC013 06/06 A2940 RMK AO2 SLP941 P0001 T00610056 TSNO
PABA 170040Z AUTO 27015KT 8SM -RA SCT007 OVC013 06/06 A2940 RMK AO2 P0001 TSNO
PABA 170022Z AUTO 27015KT 10SM -RA BKN007 OVC013 06/06 A2940 RMK AO2 P0001 TSNO
PABA 162355Z AUTO 27016KT 7SM -RA BKN005 OVC016 06/06 A2940 RMK AO2 CIG 003V008 P0000 TSNO
PABA 162352Z AUTO 27015KT 7SM -RA SCT005 BKN016 OVC045 06/06 A2941 RMK AO2 PK WND 26026/2329 SLP943 P0001 6//// T00560056 10078 20028 55007 TSNO
PABA 162342Z AUTO 28014G24KT 5SM -RA BR SCT005 BKN016 OVC043 06/05 A2941 RMK AO2 PK WND 26026/2329 P0001 TSNO
PABA 162258Z AUTO 26019KT 4SM -RA BR FEW006 BKN041 OVC050 07/07 A2940 RMK AO2 P0000 TSNO
PABA 162252Z AUTO 25019KT 4SM -RA BR FEW008 BKN028 OVC050 07/07 A2940 RMK AO2 CIG 020V035 SLP942 T00720067 TSNO
PABA 162205Z AUTO 26010KT 7SM -RA SCT002 OVC017 06/06 A2941 RMK AO2 P0000 TSNO
PABA 162152Z AUTO 26008KT 7SM -RA OVC002 06/06 A2942 RMK AO2 SLP946 P0001 T00560056 TSNO
PABA 162101Z AUTO 26011KT 3SM -RA BR BKN002 OVC007 05/04 A2943 RMK AO2 P0000 TSNO
PABA 162055Z AUTO 27011KT 3SM -RA BR BKN004 OVC007 05/04 A2943 RMK AO2 CIG 002V006 P0000 TSNO
PABA 162052Z AUTO 27011KT 2 1/2SM -RA BR OVC004 04/04 A2943 RMK AO2 VIS 2 1/2V3 RAB03 CIG 002V009 SLP950 P0000 60000 T00440044 58001 TSNO
PABA 162048Z AUTO 27012KT 2 1/2SM -RA BR BKN004 OVC008 04/04 A2942 RMK AO2 VIS 2V3 RAB03 CIG 002V007 P0000 TSNO
PABA 162036Z AUTO 27012KT 3SM -RA BR BKN004 OVC010 04/04 A2942 RMK AO2 RAB03 P0000 TSNO
PABA 162023Z AUTO 27012KT 3SM -RA BR BKN002 OVC010 04/04 A2943 RMK AO2 RAB03 P0000 TSNO
PABA 162003Z AUTO 28014KT 2SM -RA BR BKN002 OVC012 04/03 A2943 RMK AO2 RAB03 P0000 TSNO
PABA 161952Z AUTO 28013KT 4SM BR OVC002 04/03 A2943 RMK AO2 RAE42 SLP951 P0000 T00390033 TSNO
PABA 161925Z AUTO 27016KT 4SM -RA BR OVC002 04/03 A2943 RMK AO2 P0000 TSNO
PABA 161907Z AUTO 28015KT 5SM -RA BR BKN004 OVC014 03/03 A2943 RMK AO2 P0000 TSNO
PABA 161852Z AUTO 28016G23KT 8SM -RA FEW004 OVC014 03/03 A2943 RMK AO2 UPE08RAB08 SLP951 P0000 T00330028 TSNO
PABA 161837Z AUTO 28016KT 6SM -RA BR FEW004 OVC014 03/03 A2943 RMK AO2 UPE08RAB08 P0000 TSNO
PABA 161752Z AUTO 28017KT 10SM UP OVC012 03/02 A2943 RMK AO2 RAE10UPB10 SLP951 P0000 60004 T00280022 10072 20028 53006 TSNO
PABA 161652Z AUTO 29020KT 10SM -RA FEW004 OVC010 03/02 A2942 RMK AO2 SLP948 P0000 T00330022 TSNO
PABA 161603Z AUTO 29019KT 10SM -RA FEW005 OVC010 03/03 A2941 RMK AO2 P0000 TSNO
PABA 161552Z AUTO 29020KT 8SM -RA OVC010 03/03 A2942 RMK AO2 PK WND 29026/1515 SLP947 P0001 T00330028 TSNO
PABA 161529Z AUTO 28020G25KT 7SM -RA OVC010 03/03 A2941 RMK AO2 PK WND 29026/1515 P0001 TSNO
PABA 161452Z AUTO 28019KT 8SM -RA OVC008 03/03 A2941 RMK AO2 SLP944 P0001 60003 T00330028 51020 TSNO
PABA 161352Z AUTO 28019KT 4SM -RA BR OVC006 04/03 A2940 RMK AO2 PK WND 26034/1254 CIG 003V008 SLP940 P0002 T00390033 TSNO
PABA 161315Z AUTO 28018KT 8SM -RA BKN004 OVC016 06/04 A2939 RMK AO2 PK WND 26034/1254 CIG 003V007 P0000 TSNO
PABA 161310Z AUTO 28021KT 5SM -RA BR BKN006 OVC016 06/06 A2939 RMK AO2 PK WND 26034/1254 CIG 003V009 PRESRR P0000 TSNO
PABA 161252Z AUTO 26028G38KT 5SM -RA BR FEW008 OVC016 07/06 A2937 RMK AO2 PK WND 26038/1243 RAE05B39 SLP931 P0000 T00720061 TSNO
PABA 161246Z AUTO 26030G38KT 3SM -RA BR FEW008 BKN017 OVC021 07/07 A2937 RMK AO2 PK WND 26038/1243 RAE05B39 P0000 TSNO
PABA 161243Z AUTO 26032G38KT 2 1/2SM -RA BR BKN014 OVC021 07/07 A2936 RMK AO2 PK WND 26038/1243 RAE05B39 P0000 TSNO
PABA 161218Z AUTO 26030G35KT 10SM SCT014 BKN024 OVC029 07/06 A2936 RMK AO2 PK WND 26035/1217 RAE05 P0000 TSNO
PABA 161152Z AUTO 25030G35KT 5SM -RA BR OVC014 07/06 A2935 RMK AO2 PK WND 26037/1123 RAB01 SLP924 P0000 60000 T00720061 10094 20072 55004 TSNO
PABA 161052Z AUTO 26028G37KT 9SM OVC025 08/06 A2935 RMK AO2 PK WND 25040/1000 RAB24E51 SLP923 P0000 T00780061 TSNO
PABA 160952Z AUTO 25031G38KT 10SM OVC029 09/06 A2934 RMK AO2 PK WND 25050/0857 RAB02E33 SLP922 P0000 T00890056 TSNO
PABA 160925Z AUTO 25032G40KT 5SM -RA BR BKN029 BKN038 OVC050 08/07 A2935 RMK AO2 PK WND 25050/0857 RAB02 P0000 TSNO
PABA 160918Z AUTO 24033G45KT 3SM -RA BR FEW023 BKN037 OVC050 08/07 A2935 RMK AO2 PK WND 25050/0857 RAB02 P0000 TSNO
PABA 160911Z AUTO 25034G45KT 2SM RA BR SCT023 OVC048 08/07 A2935 RMK AO2 PK WND 25050/0857 RAB02 P0000 TSNO
PABA 160852Z AUTO 25033G40KT 10SM OVC023 08/06 A2936 RMK AO2 PK WND 25040/0851 RAE47 SLP928 P0000 60000 T00830061 400940011 56007 TSNO
PABA 160833Z AUTO 25031G35KT 10SM -RA BKN023 OVC030 08/06 A2937 RMK AO2 PK WND 25039/0753 P0000 TSNO
PABA 160752Z AUTO 25035G42KT 10SM -RA BKN036 OVC045 08/06 A2936 RMK AO2 PK WND 25048/0657 RAB25 SLP928 P0000 T00830056 TSNO
PABA 160652Z AUTO 25037G46KT 10SM FEW027 BKN033 OVC040 09/06 A2936 RMK AO2 PK WND 25046/0646 SLP927 T00940056 TSNO
PABA 160636Z AUTO 25035G46KT 10SM SCT025 BKN034 OVC042 09/06 A2937 RMK AO2 PK WND 25046/0628 TSNO
PABA 160629Z AUTO 25037G46KT 10SM BKN025 OVC036 09/06 A2937 RMK AO2 PK WND 25046/0628 TSNO
PABA 160621Z AUTO 25035G45KT 10SM SCT023 BKN031 OVC038 09/06 A2937 RMK AO2 PK WND 25046/0557 TSNO
PABA 160552Z AUTO 25035G43KT 10SM OVC023 08/06 A2938 RMK AO2 PK WND 25047/0535 SLP934 60000 T00830061 10089 20072 56001 TSNO
PABA 160452Z AUTO 26036G42KT 10SM OVC027 08/06 A2938 RMK AO2 PK WND 25045/0440 SLP934 T00830056 TSNO
PABA 160441Z AUTO 25036G45KT 10SM OVC029 09/06 A2938 RMK AO2 PK WND 25045/0440 TSNO
PABA 160414Z AUTO 25032G40KT 10SM OVC031 09/04 A2937 RMK AO2 PK WND 25042/0404 TSNO
PABA 160352Z AUTO 26034G40KT 10SM OVC029 08/04 A2938 RMK AO2 PK WND 25042/0338 SLP934 T00830044 TSNO
PABA 160252Z AUTO 26033G41KT 10SM OVC029 08/04 A2938 RMK AO2 PK WND 25048/0202 RAB08E23 SLP936 P0000 60000 T00830039 56021 TSNO
PABA 160241Z AUTO 25034G44KT 10SM OVC029 09/04 A2939 RMK AO2 PK WND 25048/0202 RAB08E23 P0000 TSNO
PABA 160152Z AUTO 25037G48KT 10SM OVC033 09/04 A2939 RMK AO2 PK WND 25050/0124 SLP938 T00890039 TSNO
PABA 160052Z AUTO 25035G44KT 10SM OVC035 08/04 A2942 RMK AO2 PK WND 25044/0052 SLP946 T00780039 TSNO
PABA 152352Z AUTO 25032G41KT 10SM OVC039 07/03 A2945 RMK AO2 PK WND 25045/2327 SLP957 60000 T00720033 10089 20050 56037 TSNO
PABA 152252Z AUTO 25029G34KT 10SM OVC047 07/02 A2947 RMK AO2 PK WND 25034/2251 RAB09E29 SLP966 P0000 T00670022 TSNO
PABA 152152Z AUTO 26029G37KT 10SM OVC060 07/01 A2951 RMK AO2 PK WND 26037/2144 RAB22E39 SLP978 P0000 T00720011 TSNO
PABA 152052Z AUTO 25012KT 10SM FEW042 OVC060 08/03 A2956 RMK AO2 SLP994 T00830028 57028 TSNO
PABA 151952Z AUTO 24017KT 10SM BKN080 07/02 A2958 RMK AO2 SLP001 T00720017 TSNO
PABA 151852Z AUTO 24015KT 10SM BKN090 06/02 A2962 RMK AO2 SLP014 T00610017 TSNO
PABA 151752Z AUTO 25015KT 10SM FEW100 05/01 A2964 RMK AO2 SLP022 T00500011 10050 20033 56030 TSNO
PABA 151652Z AUTO 26018G24KT 10SM FEW100 05/01 A2967 RMK AO2 SLP032 T00500006 TSNO
PABA 151552Z AUTO 26021KT 10SM SCT095 04/01 A2969 RMK AO2 SLP041 T00440006 TSNO
PABA 151452Z AUTO 26018G24KT 10SM OVC085 04/01 A2973 RMK AO2 SLP053 T00440006 56021 TSNO